createdAt,value
2018-05-18T00:01:14.088Z,11.30
2018-05-18T00:03:42.508Z,11.40
2018-05-18T00:06:11.407Z,11.40
2018-05-18T00:08:39.760Z,11.40
2018-05-18T00:11:08.589Z,11.60
2018-05-18T00:13:36.936Z,11.80
2018-05-18T00:16:05.333Z,11.90
2018-05-18T00:18:33.821Z,11.90
2018-05-18T00:21:02.503Z,12.00
2018-05-18T00:23:31.322Z,11.80
2018-05-18T00:25:59.865Z,11.80
2018-05-18T00:28:28.751Z,11.70
2018-05-18T00:30:57.476Z,11.70
2018-05-18T00:33:25.795Z,11.80
2018-05-18T00:35:54.953Z,11.60
2018-05-18T00:38:23.681Z,11.60
2018-05-18T00:40:52.021Z,11.60
2018-05-18T00:43:20.384Z,11.40
2018-05-18T00:45:50.028Z,11.40
2018-05-18T00:48:24.276Z,11.40
2018-05-18T00:50:53.673Z,11.70
2018-05-18T00:53:22.405Z,11.80
2018-05-18T00:55:50.757Z,11.80
2018-05-18T00:58:19.145Z,11.80
2018-05-18T01:00:48.841Z,11.80
2018-05-18T01:03:17.179Z,11.50
2018-05-18T01:05:45.521Z,11.30
2018-05-18T01:08:13.926Z,11.40
2018-05-18T01:10:42.583Z,11.70
2018-05-18T01:13:10.921Z,11.50
2018-05-18T01:15:39.719Z,11.70
2018-05-18T01:18:08.465Z,11.60
2018-05-18T01:20:36.801Z,11.50
2018-05-18T01:23:05.182Z,11.60
2018-05-18T01:25:33.678Z,11.50
2018-05-18T01:28:02.501Z,11.50
2018-05-18T01:30:30.828Z,11.50
2018-05-18T01:32:59.512Z,11.20
2018-05-18T01:35:27.893Z,11.30
2018-05-18T01:37:56.277Z,11.50
2018-05-18T01:40:24.763Z,11.60
2018-05-18T01:42:53.460Z,11.50
2018-05-18T01:45:21.796Z,11.70
2018-05-18T01:47:51.062Z,11.80
2018-05-18T01:50:19.390Z,11.80
2018-05-18T01:52:47.729Z,11.80
2018-05-18T01:55:17.888Z,12.00
2018-05-18T01:57:46.575Z,12.00
2018-05-18T02:00:14.957Z,11.90
2018-05-18T02:02:43.680Z,11.80
2018-05-18T02:05:12.445Z,11.70
2018-05-18T02:07:40.935Z,11.80
2018-05-18T02:10:10.230Z,11.60
2018-05-18T02:12:38.552Z,11.70
2018-05-18T02:15:07.407Z,11.70
2018-05-18T02:17:35.751Z,11.70
2018-05-18T02:20:04.201Z,11.60
2018-05-18T02:22:32.657Z,11.60
2018-05-18T02:25:01.292Z,11.60
2018-05-18T02:27:29.676Z,11.50
2018-05-18T02:29:58.044Z,11.60
2018-05-18T02:32:26.761Z,11.60
2018-05-18T02:34:55.117Z,11.70
2018-05-18T02:37:23.652Z,11.70
2018-05-18T02:39:51.991Z,11.60
2018-05-18T02:42:20.669Z,11.60
2018-05-18T02:44:49.516Z,11.80
2018-05-18T02:47:17.840Z,11.80
2018-05-18T02:49:46.222Z,11.90
2018-05-18T02:52:15.117Z,11.90
2018-05-18T02:54:44.251Z,11.80
2018-05-18T02:57:12.635Z,11.80
2018-05-18T02:59:42.671Z,11.80
2018-05-18T03:02:11.267Z,11.80
2018-05-18T03:04:39.644Z,11.60
2018-05-18T03:07:19.508Z,11.60
2018-05-18T03:09:48.676Z,11.60
2018-05-18T03:12:17.133Z,11.60
2018-05-18T03:14:45.503Z,11.70
2018-05-18T03:17:14.403Z,11.70
2018-05-18T03:19:42.787Z,11.60
2018-05-18T03:22:11.166Z,11.80
2018-05-18T03:24:40.055Z,11.80
2018-05-18T03:27:08.795Z,11.90
2018-05-18T03:29:37.959Z,11.80
2018-05-18T03:32:06.339Z,11.80
2018-05-18T03:34:35.505Z,11.80
2018-05-18T03:37:03.880Z,11.60
2018-05-18T03:39:32.383Z,11.60
2018-05-18T03:42:00.821Z,11.60
2018-05-18T03:44:29.583Z,11.70
2018-05-18T03:46:57.940Z,11.90
2018-05-18T03:49:26.359Z,12.00
2018-05-18T03:51:55.828Z,12.00
2018-05-18T03:54:24.217Z,11.90
2018-05-18T03:56:54.221Z,12.10
2018-05-18T03:59:22.886Z,12.10
2018-05-18T04:01:56.905Z,12.10
2018-05-18T04:05:33.809Z,12.00
2018-05-18T04:08:08.643Z,11.80
2018-05-18T04:10:37.518Z,11.70
2018-05-18T04:13:05.943Z,11.70
2018-05-18T04:15:35.720Z,11.80
2018-05-18T04:18:05.578Z,11.50
2018-05-18T04:20:33.985Z,11.60
2018-05-18T04:23:02.354Z,11.60
2018-05-18T04:25:30.735Z,11.80
2018-05-18T04:27:59.753Z,11.90
2018-05-18T04:30:28.225Z,11.90
2018-05-18T04:32:56.541Z,12.00
2018-05-18T04:35:25.209Z,12.00
2018-05-18T04:37:53.603Z,12.20
2018-05-18T04:40:22.162Z,12.20
2018-05-18T04:42:53.775Z,12.20
2018-05-18T04:45:22.928Z,12.20
2018-05-18T04:47:51.381Z,12.20
2018-05-18T04:50:21.192Z,12.20
2018-05-18T04:52:49.575Z,12.20
2018-05-18T04:55:18.019Z,12.20
2018-05-18T04:57:47.462Z,12.00
2018-05-18T05:00:15.930Z,11.90
2018-05-18T05:02:44.312Z,11.90
2018-05-18T05:05:13.338Z,11.80
2018-05-18T05:07:41.744Z,11.90
2018-05-18T05:10:10.114Z,12.20
2018-05-18T05:12:39.115Z,12.10
2018-05-18T05:15:20.579Z,12.40
2018-05-18T05:17:49.004Z,12.50
2018-05-18T05:20:18.187Z,12.40
2018-05-18T05:22:46.582Z,12.40
2018-05-18T05:28:35.954Z,12.60
2018-05-18T05:31:07.142Z,12.30
2018-05-18T05:33:53.492Z,12.30
2018-05-18T05:36:49.095Z,12.00
2018-05-18T05:39:20.116Z,12.00
2018-05-18T05:41:52.264Z,12.20
2018-05-18T05:44:20.683Z,12.20
2018-05-18T05:46:53.206Z,12.30
2018-05-18T05:49:25.844Z,12.50
2018-05-18T05:51:55.570Z,12.70
2018-05-18T05:54:25.607Z,12.60
2018-05-18T05:56:54.579Z,12.50
2018-05-18T05:59:24.641Z,12.70
2018-05-18T06:01:53.249Z,12.70
2018-05-18T06:04:22.874Z,12.60
2018-05-18T06:06:51.958Z,12.70
2018-05-18T06:09:38.867Z,12.30
2018-05-18T06:12:07.606Z,12.20
2018-05-18T06:14:39.592Z,12.20
2018-05-18T06:17:11.635Z,12.10
2018-05-18T06:19:41.476Z,12.10
2018-05-18T06:22:09.881Z,12.10
2018-05-18T06:24:38.278Z,12.20
2018-05-18T06:27:07.043Z,11.80
2018-05-18T06:29:35.454Z,11.90
2018-05-18T06:32:04.647Z,11.90
2018-05-18T06:34:34.999Z,11.90
2018-05-18T06:37:04.167Z,11.90
2018-05-18T06:39:32.543Z,11.90
2018-05-18T06:42:01.550Z,12.00
2018-05-18T06:44:31.452Z,12.10
2018-05-18T06:47:01.366Z,12.20
2018-05-18T06:50:03.679Z,12.20
2018-05-18T06:52:33.620Z,12.20
2018-05-18T06:55:02.341Z,12.20
2018-05-18T06:57:30.879Z,12.40
2018-05-18T07:00:00.898Z,12.70
2018-05-18T07:02:29.631Z,13.00
2018-05-18T07:04:58.223Z,13.30
2018-05-18T07:07:30.495Z,13.90
2018-05-18T07:09:59.802Z,13.90
2018-05-18T07:12:41.066Z,14.20
2018-05-18T07:18:02.001Z,14.90
2018-05-18T07:20:32.164Z,15.30
2018-05-18T07:23:06.477Z,15.20
2018-05-18T07:25:38.103Z,14.90
2018-05-18T07:28:08.085Z,14.80
2018-05-18T07:30:38.929Z,15.20
2018-05-18T07:33:07.967Z,15.50
2018-05-18T07:35:49.874Z,15.70
2018-05-18T07:38:20.376Z,15.90
2018-05-18T07:40:56.074Z,15.60
2018-05-18T07:43:31.384Z,15.80
2018-05-18T07:46:03.334Z,15.70
2018-05-18T07:48:36.910Z,15.30
2018-05-18T07:51:05.669Z,14.90
2018-05-18T07:53:37.803Z,14.80
2018-05-18T07:56:07.013Z,15.60
2018-05-18T07:58:35.875Z,15.90
2018-05-18T08:01:04.299Z,15.70
2018-05-18T08:03:36.219Z,15.80
2018-05-18T08:06:06.804Z,16.60
2018-05-18T08:08:35.496Z,17.50
2018-05-18T08:11:03.992Z,17.30
2018-05-18T08:13:32.599Z,17.40
2018-05-18T08:16:02.630Z,16.50
2018-05-18T08:18:31.438Z,15.90
2018-05-18T08:21:00.417Z,16.10
2018-05-18T08:23:42.279Z,16.30
2018-05-18T08:26:13.186Z,16.30
2018-05-18T08:28:46.277Z,16.80
2018-05-18T08:31:17.916Z,17.00
2018-05-18T08:33:48.671Z,17.30
2018-05-18T08:36:20.836Z,17.20
2018-05-18T08:38:51.752Z,17.40
2018-05-18T08:44:24.056Z,18.10
2018-05-18T08:46:52.621Z,18.80
2018-05-18T08:49:23.282Z,19.70
2018-05-18T08:51:52.807Z,19.60
2018-05-18T08:54:21.495Z,20.20
2018-05-18T08:56:56.292Z,20.30
2018-05-18T08:59:32.810Z,20.30
2018-05-18T09:05:22.464Z,20.60
2018-05-18T09:07:52.467Z,21.50
2018-05-18T09:10:21.907Z,25.10
2018-05-18T09:12:51.152Z,25.00
2018-05-18T09:15:21.884Z,24.80
2018-05-18T09:17:52.518Z,24.70
2018-05-18T09:20:25.458Z,25.90
2018-05-18T09:26:17.480Z,25.90
2018-05-18T09:28:47.105Z,26.30
2018-05-18T09:31:20.168Z,26.20
2018-05-18T09:37:16.117Z,25.30
2018-05-18T09:39:45.233Z,25.60
2018-05-18T09:42:13.772Z,25.30
2018-05-18T09:44:42.379Z,24.50
2018-05-18T09:47:14.614Z,24.70
2018-05-18T09:49:43.970Z,24.50
2018-05-18T09:52:14.059Z,21.20
2018-05-18T09:54:53.508Z,21.10
2018-05-18T09:57:40.028Z,19.50
2018-05-18T10:00:12.100Z,20.60
2018-05-18T10:05:45.811Z,18.40
2018-05-18T10:08:20.055Z,18.60
2018-05-18T10:10:49.555Z,18.60
2018-05-18T10:13:20.332Z,18.10
2018-05-18T10:15:54.710Z,18.10
2018-05-18T10:18:50.000Z,18.10
2018-05-18T10:21:39.459Z,18.20
2018-05-18T10:24:26.783Z,17.80
2018-05-18T10:27:12.566Z,17.90
2018-05-18T10:29:59.958Z,17.80
2018-05-18T10:32:28.387Z,17.50
2018-05-18T10:34:58.856Z,17.30
2018-05-18T10:37:28.211Z,18.00
2018-05-18T10:39:56.618Z,17.40
2018-05-18T10:46:30.071Z,18.70
2018-05-18T10:52:52.016Z,18.80
2018-05-18T10:55:44.671Z,18.90
2018-05-18T10:58:15.188Z,19.00
2018-05-18T11:04:10.028Z,19.60
2018-05-18T11:07:00.178Z,20.80
2018-05-18T11:09:34.610Z,21.30
2018-05-18T11:21:44.956Z,18.50
2018-05-18T11:27:49.984Z,19.10
2018-05-18T11:30:20.192Z,18.50
2018-05-18T11:32:49.635Z,19.00
2018-05-18T11:35:24.490Z,18.90
2018-05-18T11:37:58.331Z,19.60
2018-05-18T11:40:29.903Z,19.80
2018-05-18T11:42:59.216Z,18.80
2018-05-18T11:45:33.236Z,18.20
2018-05-18T11:48:03.621Z,18.10
2018-05-18T11:50:33.707Z,19.30
2018-05-18T11:53:06.610Z,20.00
2018-05-18T11:55:36.025Z,19.80
2018-05-18T11:58:24.963Z,19.80
2018-05-18T12:00:53.573Z,20.20
2018-05-18T12:03:34.687Z,20.30
2018-05-18T12:06:06.243Z,20.50
2018-05-18T12:08:36.622Z,21.30
2018-05-18T12:11:05.252Z,21.30
2018-05-18T12:13:33.902Z,22.20
2018-05-18T12:16:04.454Z,20.20
2018-05-18T12:18:32.897Z,20.20
2018-05-18T12:21:03.013Z,19.20
2018-05-18T12:25:01.311Z,20.40
2018-05-18T12:27:34.995Z,20.60
2018-05-18T12:30:05.217Z,19.50
2018-05-18T12:32:38.730Z,19.70
2018-05-18T12:35:09.970Z,19.70
2018-05-18T12:37:39.948Z,19.80
2018-05-18T12:40:09.987Z,18.90
2018-05-18T12:42:38.868Z,18.90
2018-05-18T12:45:12.307Z,18.50
2018-05-18T12:47:48.461Z,18.50
2018-05-18T12:50:17.711Z,19.50
2018-05-18T12:53:02.562Z,19.60
2018-05-18T12:55:32.296Z,19.60
2018-05-18T12:58:01.786Z,19.10
2018-05-18T13:00:30.266Z,19.00
2018-05-18T13:03:13.853Z,19.30
2018-05-18T13:08:45.080Z,19.40
2018-05-18T13:11:14.276Z,19.80
2018-05-18T13:13:43.459Z,20.30
2018-05-18T13:19:33.668Z,20.30
2018-05-18T13:22:03.921Z,21.00
2018-05-18T13:24:37.214Z,20.90
2018-05-18T13:27:05.623Z,20.90
2018-05-18T13:29:34.883Z,21.10
2018-05-18T13:32:04.074Z,20.30
2018-05-18T13:35:25.094Z,20.30
2018-05-18T13:38:00.295Z,20.50
2018-05-18T13:40:29.341Z,20.30
2018-05-18T13:42:58.510Z,20.80
2018-05-18T13:45:28.402Z,20.90
2018-05-18T13:48:00.622Z,20.90
2018-05-18T13:50:32.455Z,20.80
2018-05-18T13:53:01.753Z,20.80
2018-05-18T13:55:38.588Z,20.60
2018-05-18T13:58:07.227Z,20.60
2018-05-18T14:00:36.270Z,20.00
2018-05-18T14:03:05.146Z,19.70
2018-05-18T14:05:34.319Z,20.40
2018-05-18T14:08:03.404Z,20.40
2018-05-18T14:10:32.424Z,20.40
2018-05-18T14:13:01.770Z,20.60
2018-05-18T14:15:45.258Z,20.60
2018-05-18T14:18:14.315Z,20.50
2018-05-18T14:20:44.016Z,21.10
2018-05-18T14:23:14.409Z,21.00
2018-05-18T14:25:44.305Z,21.50
2018-05-18T14:28:15.796Z,21.50
2018-05-18T14:30:45.254Z,21.50
2018-05-18T14:33:13.848Z,21.40
2018-05-18T14:35:45.565Z,21.30
2018-05-18T14:38:14.224Z,21.30
2018-05-18T14:44:26.657Z,21.10
2018-05-18T14:46:56.648Z,21.40
2018-05-18T14:49:25.928Z,22.00
2018-05-18T14:51:54.825Z,22.00
2018-05-18T14:54:23.878Z,22.20
2018-05-18T14:56:52.389Z,21.80
2018-05-18T14:59:21.998Z,21.70
2018-05-18T15:01:52.659Z,21.40
2018-05-18T15:04:21.048Z,21.40
2018-05-18T15:06:50.519Z,21.60
2018-05-18T15:09:19.379Z,21.70
2018-05-18T15:11:48.000Z,22.00
2018-05-18T15:14:35.091Z,22.20
2018-05-18T15:17:07.428Z,21.90
2018-05-18T15:19:36.908Z,21.90
2018-05-18T15:22:06.832Z,22.00
2018-05-18T15:24:35.981Z,22.00
2018-05-18T15:27:11.089Z,21.90
2018-05-18T15:29:39.843Z,21.30
2018-05-18T15:32:09.126Z,20.30
2018-05-18T15:34:37.637Z,20.30
2018-05-18T15:37:07.118Z,19.90
2018-05-18T15:39:37.432Z,19.90
2018-05-18T15:42:06.047Z,20.10
2018-05-18T15:44:38.881Z,19.60
2018-05-18T15:47:09.034Z,19.70
2018-05-18T15:49:39.187Z,19.80
2018-05-18T15:52:08.752Z,19.60
2018-05-18T15:54:46.855Z,19.60
2018-05-18T15:57:17.120Z,19.70
2018-05-18T15:59:46.114Z,19.60
2018-05-18T16:05:38.928Z,18.90
2018-05-18T16:08:13.420Z,19.00
2018-05-18T16:10:46.595Z,19.30
2018-05-18T16:16:36.988Z,19.60
2018-05-18T16:19:05.467Z,19.80
2018-05-18T16:21:35.248Z,19.70
2018-05-18T16:24:09.003Z,19.20
2018-05-18T16:26:38.236Z,19.20
2018-05-18T16:29:07.227Z,19.10
2018-05-18T16:31:35.615Z,19.20
2018-05-18T16:34:04.076Z,19.40
2018-05-18T16:36:34.004Z,19.50
2018-05-18T16:39:12.761Z,19.50
2018-05-18T16:41:42.928Z,19.30
2018-05-18T16:44:13.916Z,18.90
2018-05-18T16:46:42.579Z,18.90
2018-05-18T16:49:11.477Z,19.00
2018-05-18T16:51:39.908Z,18.80
2018-05-18T16:54:09.232Z,19.10
2018-05-18T16:56:42.037Z,19.30
2018-05-18T16:59:10.466Z,19.30
2018-05-18T17:01:52.323Z,19.20
2018-05-18T17:04:21.175Z,19.10
2018-05-18T17:07:04.295Z,19.20
2018-05-18T17:09:33.816Z,19.00
2018-05-18T17:12:08.232Z,18.90
2018-05-18T17:14:41.219Z,18.90
2018-05-18T17:17:15.613Z,18.70
2018-05-18T17:19:43.997Z,18.60
2018-05-18T17:22:19.475Z,18.10
2018-05-18T17:24:48.648Z,17.50
2018-05-18T17:27:18.554Z,17.90
2018-05-18T17:29:48.247Z,18.20
2018-05-18T17:32:16.656Z,18.20
2018-05-18T17:34:45.039Z,18.20
2018-05-18T17:37:13.818Z,17.70
2018-05-18T17:39:42.224Z,17.70
2018-05-18T17:42:11.451Z,17.80
2018-05-18T17:44:42.203Z,17.70
2018-05-18T17:47:10.703Z,17.50
2018-05-18T17:49:39.119Z,17.30
2018-05-18T17:52:08.302Z,17.20
2018-05-18T17:54:37.607Z,17.40
2018-05-18T17:57:06.416Z,17.40
2018-05-18T17:59:37.122Z,17.30
2018-05-18T18:02:08.946Z,16.20
2018-05-18T18:04:39.906Z,16.20
2018-05-18T18:07:08.404Z,16.10
2018-05-18T18:09:38.226Z,16.50
2018-05-18T18:12:07.816Z,16.60
2018-05-18T18:14:36.211Z,16.50
2018-05-18T18:17:04.648Z,16.60
2018-05-18T18:19:33.770Z,16.40
2018-05-18T18:22:04.915Z,16.10
2018-05-18T18:24:33.446Z,16.10
2018-05-18T18:27:01.847Z,15.90
2018-05-18T18:29:30.260Z,15.80
2018-05-18T18:31:58.734Z,15.80
2018-05-18T18:34:27.490Z,16.00
2018-05-18T18:36:55.926Z,16.00
2018-05-18T18:39:25.101Z,15.60
2018-05-18T18:41:56.624Z,15.50
2018-05-18T18:44:25.048Z,15.50
2018-05-18T18:46:53.506Z,15.60
2018-05-18T18:49:22.690Z,15.60
2018-05-18T18:51:51.294Z,15.70
2018-05-18T18:54:19.985Z,15.90
2018-05-18T18:56:50.617Z,15.80
2018-05-18T18:59:49.139Z,15.70
2018-05-18T19:02:19.007Z,15.60
2018-05-18T19:05:21.016Z,15.50
2018-05-18T19:07:50.018Z,15.70
2018-05-18T19:10:18.498Z,15.60
2018-05-18T19:12:46.954Z,15.30
2018-05-18T19:15:27.020Z,15.00
2018-05-18T19:17:56.431Z,15.00
2018-05-18T19:23:33.506Z,14.90
2018-05-18T19:26:01.966Z,15.30
2018-05-18T19:28:30.359Z,15.40
2018-05-18T19:31:00.362Z,15.60
2018-05-18T19:33:29.481Z,15.60
2018-05-18T19:35:57.923Z,15.40
2018-05-18T19:38:26.407Z,15.60
2018-05-18T19:40:55.281Z,15.20
2018-05-18T19:43:23.747Z,15.20
2018-05-18T19:45:52.262Z,15.10
2018-05-18T19:48:20.968Z,15.00
2018-05-18T19:50:49.485Z,14.40
2018-05-18T19:53:17.873Z,14.50
2018-05-18T19:55:49.889Z,14.50
2018-05-18T19:58:18.487Z,14.60
2018-05-18T20:00:47.131Z,14.50
2018-05-18T20:03:17.663Z,14.40
2018-05-18T20:05:48.103Z,14.40
2018-05-18T20:08:18.245Z,14.30
2018-05-18T20:10:48.607Z,13.80
2018-05-18T20:13:17.861Z,13.80
2018-05-18T20:15:46.395Z,13.80
2018-05-18T20:18:16.081Z,13.90
2018-05-18T20:20:45.386Z,14.00
2018-05-18T20:23:13.757Z,14.10
2018-05-18T20:25:43.991Z,14.00
2018-05-18T20:28:13.151Z,14.00
2018-05-18T20:30:41.595Z,14.00
2018-05-18T20:33:10.276Z,13.70
2018-05-18T20:35:38.708Z,13.80
2018-05-18T20:38:07.172Z,13.80
2018-05-18T20:40:36.931Z,13.60
2018-05-18T20:43:06.895Z,13.60
2018-05-18T20:45:35.418Z,13.80
2018-05-18T20:48:05.632Z,13.70
2018-05-18T20:50:35.383Z,13.70
2018-05-18T20:53:04.010Z,13.50
2018-05-18T20:55:32.717Z,13.40
2018-05-18T20:58:01.106Z,13.40
2018-05-18T21:00:29.526Z,13.40
2018-05-18T21:02:59.418Z,13.50
2018-05-18T21:05:27.887Z,13.40
2018-05-18T21:07:57.105Z,13.50
2018-05-18T21:10:25.849Z,13.60
2018-05-18T21:12:54.223Z,13.40
2018-05-18T21:15:22.691Z,13.20
2018-05-18T21:17:51.534Z,13.10
2018-05-18T21:20:20.693Z,13.10
2018-05-18T21:22:49.071Z,13.10
2018-05-18T21:25:17.786Z,12.70
2018-05-18T21:27:46.334Z,12.60
2018-05-18T21:30:14.711Z,12.70
2018-05-18T21:32:43.914Z,12.70
2018-05-18T21:35:12.319Z,12.80
2018-05-18T21:37:41.080Z,13.00
2018-05-18T21:40:09.962Z,13.00
2018-05-18T21:42:38.351Z,13.00
2018-05-18T21:45:08.291Z,12.70
2018-05-18T21:47:37.353Z,12.70
2018-05-18T21:50:05.735Z,12.80
2018-05-18T21:52:34.410Z,12.80
2018-05-18T21:55:03.256Z,12.80
2018-05-18T21:57:32.760Z,12.60
2018-05-18T22:00:01.966Z,12.80
2018-05-18T22:02:31.059Z,12.80
2018-05-18T22:04:59.434Z,12.80
2018-05-18T22:07:27.824Z,12.80
2018-05-18T22:09:56.611Z,12.90
2018-05-18T22:12:25.016Z,12.80
2018-05-18T22:14:53.432Z,12.80
2018-05-18T22:17:22.968Z,12.60
2018-05-18T22:19:52.137Z,12.30
2018-05-18T22:22:21.254Z,12.20
2018-05-18T22:24:54.039Z,12.00
2018-05-18T22:27:22.953Z,11.80
2018-05-18T22:29:51.595Z,11.70
2018-05-18T22:32:20.124Z,11.80
2018-05-18T22:34:50.030Z,12.00
2018-05-18T22:37:20.521Z,12.00
2018-05-18T22:39:48.931Z,11.90
2018-05-18T22:42:18.075Z,12.00
2018-05-18T22:44:46.735Z,11.90
2018-05-18T22:47:15.148Z,11.80
2018-05-18T22:49:43.546Z,11.60
2018-05-18T22:52:12.233Z,11.50
2018-05-18T22:54:40.634Z,11.40
2018-05-18T22:57:09.073Z,11.30
2018-05-18T22:59:38.448Z,11.40
2018-05-18T23:02:08.433Z,11.70
2018-05-18T23:04:37.437Z,11.70
2018-05-18T23:07:06.117Z,11.50
2018-05-18T23:09:34.483Z,11.30
2018-05-18T23:12:02.893Z,11.30
2018-05-18T23:14:32.479Z,11.00
2018-05-18T23:17:00.882Z,11.00
2018-05-18T23:19:29.296Z,11.10
2018-05-18T23:21:58.111Z,11.30
2018-05-18T23:24:26.499Z,11.30
2018-05-18T23:26:56.721Z,11.40
2018-05-18T23:29:25.604Z,11.50
2018-05-18T23:31:53.995Z,11.20
2018-05-18T23:34:22.359Z,11.20
2018-05-18T23:37:18.335Z,11.20
2018-05-18T23:39:47.497Z,11.40
2018-05-18T23:42:16.266Z,11.40
2018-05-18T23:44:45.019Z,11.30
2018-05-18T23:47:14.013Z,11.30
2018-05-18T23:49:43.408Z,11.00
2018-05-18T23:52:12.564Z,11.00
2018-05-18T23:54:42.065Z,11.00
2018-05-18T23:57:11.607Z,11.10
2018-05-18T23:59:40.400Z,11.00
